Time;durP1;ratioP1;P1;durP2;ratioP2;P2;SDS_P1;SDS_P2;PMS_P1;PMS_P2;Temp;Humidity;BMP_temperature;BMP_pressure;BME280_temperature;BME280_humidity;BME280_pressure;Samples;Min_cycle;Max_cycle;Signal;HPM_P1;HPM_P2
2022/05/06 00:01:54;;;;;;;;;18.00;15.67;;;;;;;;4974073;28;45570;-76
2022/05/06 00:04:19;;;;;;;;;14.00;14.00;;;;;;;;4972839;28;45480;-75
2022/05/06 00:06:44;;;;;;;;;10.33;10.33;;;;;;;;4972883;28;46226;-78
2022/05/06 00:09:10;;;;;;;;;15.67;15.00;;;;;;;;4973445;28;45506;-76
2022/05/06 00:11:35;;;;;;;;;15.67;15.67;;;;;;;;4972764;28;45418;-74
2022/05/06 00:14:02;;;;;;;;;18.33;15.67;;;;;;;;4953186;28;45309;-73
2022/05/06 00:16:28;;;;;;;;;23.00;21.67;;;;;;;;4953398;28;46158;-73
2022/05/06 00:18:54;;;;;;;;;20.00;19.00;;;;;;;;4954473;28;45383;-73
2022/05/06 00:21:22;;;;;;;;;15.67;14.33;;;;;;;;4946267;28;45322;-73
2022/05/06 00:23:48;;;;;;;;;17.00;17.00;;;;;;;;4952576;28;45415;-73
2022/05/06 00:26:13;;;;;;;;;17.00;16.33;;;;;;;;4952969;28;46074;-75
2022/05/06 00:28:39;;;;;;;;;20.67;18.33;;;;;;;;4953890;28;45550;-76
2022/05/06 00:31:06;;;;;;;;;19.67;17.00;;;;;;;;4952517;28;45780;-75
2022/05/06 00:33:32;;;;;;;;;18.67;16.00;;;;;;;;4953807;28;45419;-76
2022/05/06 00:35:58;;;;;;;;;21.00;19.00;;;;;;;;4953649;28;45558;-75
2022/05/06 00:38:24;;;;;;;;;20.00;16.00;;;;;;;;4953400;28;45358;-72
2022/05/06 00:40:49;;;;;;;;;23.00;20.67;;;;;;;;4953365;28;45590;-73
2022/05/06 00:43:15;;;;;;;;;18.67;16.67;;;;;;;;4952548;28;45461;-72
2022/05/06 00:45:53;;;;;;;;;17.67;17.00;;;;;;;;4952707;28;45407;-72
2022/05/06 00:48:25;;;;;;;;;22.33;21.33;;;;;;;;4971154;28;45569;-72
2022/05/06 00:50:51;;;;;;;;;19.67;16.33;;;;;;;;4983935;28;45700;-72
2022/05/06 00:53:17;;;;;;;;;16.33;16.33;;;;;;;;4956151;28;45727;-72
2022/05/06 00:55:42;;;;;;;;;15.67;14.67;;;;;;;;4972064;28;45501;-72
2022/05/06 00:58:08;;;;;;;;;19.67;16.00;;;;;;;;4971980;28;46073;-72
2022/05/06 01:00:33;;;;;;;;;19.00;19.00;;;;;;;;4955071;28;45576;-74
2022/05/06 01:02:59;;;;;;;;;17.00;16.00;;;;;;;;4970908;28;46070;-72
2022/05/06 01:05:24;;;;;;;;;20.67;18.33;;;;;;;;4972070;28;46695;-73
2022/05/06 01:07:51;;;;;;;;;17.67;15.33;;;;;;;;4994820;28;45675;-75
2022/05/06 01:10:20;;;;;;;;;22.33;21.33;;;;;;;;5001004;28;45367;-72
2022/05/06 01:12:46;;;;;;;;;14.33;14.33;;;;;;;;5014830;28;45713;-73
2022/05/06 01:15:18;;;;;;;;;19.00;17.33;;;;;;;;5014536;28;45562;-71
2022/05/06 01:17:44;;;;;;;;;21.00;18.33;;;;;;;;5014810;28;45666;-72
2022/05/06 01:20:11;;;;;;;;;17.00;15.00;;;;;;;;5014881;28;45713;-72
2022/05/06 01:22:36;;;;;;;;;23.33;22.00;;;;;;;;5014967;28;45706;-73
2022/05/06 01:25:02;;;;;;;;;18.67;16.00;;;;;;;;5013449;28;46801;-73
2022/05/06 01:27:32;;;;;;;;;20.33;18.67;;;;;;;;5014439;28;45785;-72
2022/05/06 01:29:58;;;;;;;;;21.00;21.00;;;;;;;;5015177;28;45681;-73
2022/05/06 01:32:23;;;;;;;;;23.67;21.33;;;;;;;;5014607;28;45973;-72
2022/05/06 01:34:50;;;;;;;;;24.67;21.33;;;;;;;;5014735;28;45617;-73
2022/05/06 01:37:17;;;;;;;;;20.33;20.00;;;;;;;;5014150;28;45460;-73
2022/05/06 01:39:43;;;;;;;;;19.67;18.33;;;;;;;;4992948;28;45353;-73
2022/05/06 01:42:09;;;;;;;;;20.33;16.33;;;;;;;;4994039;28;45430;-72
2022/05/06 01:44:37;;;;;;;;;20.67;20.00;;;;;;;;4994233;28;45962;-72
2022/05/06 01:47:05;;;;;;;;;21.67;18.00;;;;;;;;4976779;28;45359;-72
2022/05/06 01:49:32;;;;;;;;;19.33;16.33;;;;;;;;4994221;28;45254;-72
2022/05/06 01:51:58;;;;;;;;;26.67;20.00;;;;;;;;4976521;28;46411;-71
2022/05/06 01:54:23;;;;;;;;;24.00;19.00;;;;;;;;4993970;28;45781;-72
2022/05/06 01:56:49;;;;;;;;;25.33;22.67;;;;;;;;4993899;28;45337;-72
2022/05/06 01:59:14;;;;;;;;;24.67;23.00;;;;;;;;4994284;28;45558;-71
2022/05/06 02:01:39;;;;;;;;;19.00;19.00;;;;;;;;4994751;28;45845;-73
2022/05/06 02:06:48;;;;;;;;;23.33;23.33;;;;;;;;4994624;28;45521;-73
2022/05/06 02:09:16;;;;;;;;;26.33;22.67;;;;;;;;4994611;28;46179;-71
2022/05/06 02:11:42;;;;;;;;;22.33;22.33;;;;;;;;4993839;28;45783;-72
2022/05/06 02:14:07;;;;;;;;;23.67;20.00;;;;;;;;4976159;28;46700;-73
2022/05/06 02:16:33;;;;;;;;;27.67;23.67;;;;;;;;4993963;28;45349;-72
2022/05/06 02:18:58;;;;;;;;;26.67;22.33;;;;;;;;4994169;28;45333;-73
2022/05/06 02:21:23;;;;;;;;;27.33;23.67;;;;;;;;4976389;28;45871;-73
2022/05/06 02:23:48;;;;;;;;;26.00;21.33;;;;;;;;4992856;28;46294;-73
2022/05/06 02:26:13;;;;;;;;;29.67;23.00;;;;;;;;4993549;28;45325;-72
2022/05/06 02:28:39;;;;;;;;;28.67;25.00;;;;;;;;4994139;28;44805;-74
2022/05/06 02:33:48;;;;;;;;;28.00;24.67;;;;;;;;4994325;28;45347;-73
2022/05/06 02:36:13;;;;;;;;;23.33;22.33;;;;;;;;4993960;28;45312;-72
2022/05/06 02:38:38;;;;;;;;;28.33;23.33;;;;;;;;4993604;28;45411;-73
2022/05/06 02:41:04;;;;;;;;;25.00;21.33;;;;;;;;4993577;28;45573;-73
2022/05/06 02:43:29;;;;;;;;;28.33;23.33;;;;;;;;4993649;28;45277;-74
2022/05/06 02:45:54;;;;;;;;;28.00;25.67;;;;;;;;4993789;28;45411;-73
2022/05/06 02:48:20;;;;;;;;;21.67;20.33;;;;;;;;4993963;28;45696;-71
2022/05/06 02:50:47;;;;;;;;;23.67;22.67;;;;;;;;4987732;28;45473;-72
2022/05/06 02:53:12;;;;;;;;;26.67;22.00;;;;;;;;4993039;28;46409;-73
2022/05/06 02:55:38;;;;;;;;;27.00;23.33;;;;;;;;4993189;28;45271;-73
2022/05/06 02:58:04;;;;;;;;;29.00;23.33;;;;;;;;4993520;28;45606;-74
2022/05/06 03:00:29;;;;;;;;;23.33;23.33;;;;;;;;4989691;28;45313;-73
2022/05/06 03:02:56;;;;;;;;;24.33;20.33;;;;;;;;4975165;28;47110;-72
2022/05/06 03:05:21;;;;;;;;;25.00;20.67;;;;;;;;4992650;28;45661;-75
2022/05/06 03:07:46;;;;;;;;;24.00;21.00;;;;;;;;4993709;28;45441;-76
2022/05/06 03:10:12;;;;;;;;;27.33;23.33;;;;;;;;4992963;28;45517;-76
2022/05/06 03:12:37;;;;;;;;;26.00;22.00;;;;;;;;4992710;28;46097;-75
2022/05/06 03:15:04;;;;;;;;;26.33;24.00;;;;;;;;4993139;28;45851;-77
2022/05/06 03:17:30;;;;;;;;;24.00;23.00;;;;;;;;4975395;28;45393;-77
2022/05/06 03:19:56;;;;;;;;;28.67;25.00;;;;;;;;4992888;28;45840;-78
2022/05/06 03:22:21;;;;;;;;;28.00;25.33;;;;;;;;4992624;28;45553;-76
2022/05/06 03:24:47;;;;;;;;;23.33;21.00;;;;;;;;4992221;28;45516;-76
2022/05/06 03:29:56;;;;;;;;;25.00;22.00;;;;;;;;4992157;28;45826;-77
2022/05/06 03:32:22;;;;;;;;;26.67;25.67;;;;;;;;4992609;28;46924;-77
2022/05/06 03:34:48;;;;;;;;;26.33;23.33;;;;;;;;4996919;28;45567;-78
2022/05/06 03:37:13;;;;;;;;;29.67;27.33;;;;;;;;4993178;28;45439;-77
2022/05/06 03:39:38;;;;;;;;;29.33;24.33;;;;;;;;4993324;28;45596;-76
2022/05/06 03:42:04;;;;;;;;;29.67;25.67;;;;;;;;4975261;28;47208;-76
2022/05/06 03:44:29;;;;;;;;;22.67;19.67;;;;;;;;4993343;28;45636;-78
2022/05/06 03:46:54;;;;;;;;;29.00;26.67;;;;;;;;4993479;28;45633;-75
2022/05/06 03:49:20;;;;;;;;;23.33;21.33;;;;;;;;4976052;28;45463;-77
2022/05/06 03:51:45;;;;;;;;;27.67;23.00;;;;;;;;4992798;28;46433;-76
2022/05/06 03:54:10;;;;;;;;;28.00;27.33;;;;;;;;4992534;28;45477;-76
2022/05/06 03:56:36;;;;;;;;;28.33;24.00;;;;;;;;4992255;28;45358;-76
2022/05/06 03:59:01;;;;;;;;;26.00;21.67;;;;;;;;4992723;28;45463;-77
2022/05/06 04:01:26;;;;;;;;;26.33;25.33;;;;;;;;4992848;28;45296;-77
2022/05/06 04:03:51;;;;;;;;;28.00;26.67;;;;;;;;4992925;28;45642;-76
2022/05/06 04:06:17;;;;;;;;;25.67;24.67;;;;;;;;4991910;28;45594;-76
2022/05/06 04:08:42;;;;;;;;;26.67;24.33;;;;;;;;4974011;28;46079;-76
2022/05/06 04:11:11;;;;;;;;;24.67;23.00;;;;;;;;4992425;28;45835;-78
2022/05/06 04:13:37;;;;;;;;;25.00;23.67;;;;;;;;4976063;28;45434;-77
2022/05/06 04:16:02;;;;;;;;;32.33;26.67;;;;;;;;4972140;28;45875;-76
2022/05/06 04:18:28;;;;;;;;;31.33;23.00;;;;;;;;4978924;28;45714;-76
2022/05/06 04:23:38;;;;;;;;;37.00;30.67;;;;;;;;4992510;28;45332;-77
2022/05/06 04:26:04;;;;;;;;;32.33;27.33;;;;;;;;4974788;28;45681;-77
2022/05/06 04:28:30;;;;;;;;;29.33;24.33;;;;;;;;4992793;28;45458;-77
2022/05/06 04:30:55;;;;;;;;;29.33;24.67;;;;;;;;4981976;28;46027;-79
2022/05/06 04:33:21;;;;;;;;;43.00;34.33;;;;;;;;5012360;28;45528;-76
2022/05/06 04:35:47;;;;;;;;;23.67;23.33;;;;;;;;5012821;28;45486;-77
2022/05/06 04:38:12;;;;;;;;;51.33;40.33;;;;;;;;4998653;28;45375;-75
2022/05/06 04:40:38;;;;;;;;;35.33;28.00;;;;;;;;4996194;28;46772;-74
2022/05/06 04:43:06;;;;;;;;;30.67;27.67;;;;;;;;4978936;28;45414;-77
2022/05/06 04:45:35;;;;;;;;;40.00;31.00;;;;;;;;4996077;28;45751;-75
2022/05/06 04:48:01;;;;;;;;;35.33;32.00;;;;;;;;4995538;28;45404;-76
2022/05/06 04:50:27;;;;;;;;;48.00;37.33;;;;;;;;4995803;28;45348;-76
2022/05/06 04:52:52;;;;;;;;;32.33;27.00;;;;;;;;4995960;28;45365;-76
2022/05/06 04:55:17;;;;;;;;;28.00;26.67;;;;;;;;4995509;28;45609;-74
2022/05/06 04:57:42;;;;;;;;;29.67;23.67;;;;;;;;4995312;28;45774;-76
2022/05/06 05:00:09;;;;;;;;;26.67;25.33;;;;;;;;4980128;28;46114;-77
2022/05/06 05:02:34;;;;;;;;;37.67;31.33;;;;;;;;4981272;28;45354;-76
2022/05/06 05:04:59;;;;;;;;;31.67;26.00;;;;;;;;4986865;28;45632;-75
2022/05/06 05:07:25;;;;;;;;;28.33;24.33;;;;;;;;4985472;28;45643;-76
2022/05/06 05:09:51;;;;;;;;;36.00;30.67;;;;;;;;4985573;28;46874;-77
2022/05/06 05:12:16;;;;;;;;;30.33;21.67;;;;;;;;4980457;28;45331;-77
2022/05/06 05:14:41;;;;;;;;;25.67;20.67;;;;;;;;4975686;28;45238;-78
2022/05/06 05:17:08;;;;;;;;;29.33;23.67;;;;;;;;4975357;28;45749;-76
2022/05/06 05:19:33;;;;;;;;;27.67;23.00;;;;;;;;4979721;28;47090;-77
2022/05/06 05:21:59;;;;;;;;;23.67;23.00;;;;;;;;4975317;28;45980;-76
2022/05/06 05:24:24;;;;;;;;;24.67;22.00;;;;;;;;4975444;28;45382;-76
2022/05/06 05:26:50;;;;;;;;;20.33;20.33;;;;;;;;4978182;28;45396;-77
2022/05/06 05:29:15;;;;;;;;;21.67;20.00;;;;;;;;4975124;28;45372;-76
2022/05/06 05:31:40;;;;;;;;;23.33;21.33;;;;;;;;4975694;28;45313;-76
2022/05/06 05:34:06;;;;;;;;;26.00;22.67;;;;;;;;4981971;28;45819;-75
2022/05/06 05:36:31;;;;;;;;;23.33;19.67;;;;;;;;4995030;28;45334;-73
2022/05/06 05:39:12;;;;;;;;;23.33;20.67;;;;;;;;4974727;28;45469;-76
2022/05/06 05:42:03;;;;;;;;;25.33;21.67;;;;;;;;4972472;28;45712;-76
2022/05/06 05:49:53;;;;;;;;;22.00;19.33;;;;;;;;4974081;28;45603;-73
2022/05/06 05:54:54;;;;;;;;;18.33;16.67;;;;;;;;5018879;23;45781;-80
2022/05/06 05:57:20;;;;;;;;;25.00;22.00;;;;;;;;4938350;28;46594;-83
2022/05/06 05:59:47;;;;;;;;;19.33;18.00;;;;;;;;4970201;28;47085;-81
2022/05/06 06:02:12;;;;;;;;;23.33;21.33;;;;;;;;4941498;28;45634;-82
2022/05/06 06:04:39;;;;;;;;;16.67;15.00;;;;;;;;4940579;28;46147;-80
2022/05/06 06:07:04;;;;;;;;;20.00;16.33;;;;;;;;4942845;28;45486;-79
2022/05/06 06:09:31;;;;;;;;;22.67;18.67;;;;;;;;4937909;28;46445;-77
2022/05/06 06:11:57;;;;;;;;;26.33;23.67;;;;;;;;4940714;28;45839;-76
2022/05/06 06:17:14;;;;;;;;;21.33;17.67;;;;;;;;4882413;29;45455;-79
2022/05/06 06:22:43;;;;;;;;;19.33;17.67;;;;;;;;4895748;28;45640;-78
2022/05/06 06:25:13;;;;;;;;;26.67;23.33;;;;;;;;4882037;28;45910;-80
2022/05/06 06:27:47;;;;;;;;;22.67;20.33;;;;;;;;4902181;28;46161;-81
2022/05/06 06:30:34;;;;;;;;;15.00;15.00;;;;;;;;4916647;28;46627;-81
2022/05/06 06:33:29;;;;;;;;;;;;;;;;;;;;;
2022/05/06 06:35:58;;;;;;;;;18.00;15.33;;;;;;;;4912180;28;70463;-81
2022/05/06 06:38:24;;;;;;;;;20.33;16.67;;;;;;;;4896521;28;45916;-77
2022/05/06 06:40:51;;;;;;;;;22.00;17.67;;;;;;;;4908812;28;45597;-79
2022/05/06 06:43:20;;;;;;;;;12.00;12.00;;;;;;;;4909134;28;45591;-79
2022/05/06 06:45:45;;;;;;;;;16.00;13.67;;;;;;;;4892900;28;45553;-81
2022/05/06 06:48:13;;;;;;;;;17.67;15.33;;;;;;;;4903454;28;45577;-79
2022/05/06 06:50:41;;;;;;;;;18.00;15.67;;;;;;;;4895146;28;46872;-82
2022/05/06 06:53:07;;;;;;;;;20.33;19.67;;;;;;;;4909916;28;45824;-79
2022/05/06 06:55:32;;;;;;;;;20.00;18.67;;;;;;;;4925755;28;45547;-78
2022/05/06 06:58:36;;;;;;;;;17.33;16.67;;;;;;;;4924241;28;45803;-78
2022/05/06 07:01:12;;;;;;;;;;;;;;;;;;;;;
2022/05/06 07:03:38;;;;;;;;;21.00;19.00;;;;;;;;4951580;28;72319;-79
2022/05/06 07:11:57;;;;;;;;;19.67;19.67;;;;;;;;4937767;28;45882;-80
2022/05/06 07:15:08;;;;;;;;;20.00;19.00;;;;;;;;4939353;28;45424;-81
2022/05/06 07:20:40;;;;;;;;;17.67;16.33;;;;;;;;4927872;28;45880;-81
2022/05/06 07:23:10;;;;;;;;;16.33;16.33;;;;;;;;4912397;28;45547;-83
2022/05/06 07:26:00;;;;;;;;;;;;;;;;;;;;;
2022/05/06 07:31:58;;;;;;;;;15.33;13.00;;;;;;;;4897528;28;46111;-79
2022/05/06 07:34:25;;;;;;;;;14.67;14.67;;;;;;;;4916875;28;45843;-80
2022/05/06 07:36:51;;;;;;;;;12.33;12.33;;;;;;;;4931626;28;46078;-81
2022/05/06 07:42:19;;;;;;;;;15.33;15.00;;;;;;;;4869202;29;46132;-78
2022/05/06 07:44:56;;;;;;;;;11.67;11.67;;;;;;;;4868932;29;45401;-78
2022/05/06 07:50:11;;;;;;;;;18.33;16.33;;;;;;;;4929298;28;46041;-78
2022/05/06 07:52:37;;;;;;;;;12.67;12.33;;;;;;;;4922177;28;45603;-78
2022/05/06 07:55:05;;;;;;;;;10.00;10.00;;;;;;;;4936163;28;46302;-78
2022/05/06 07:57:33;;;;;;;;;12.00;12.00;;;;;;;;4931268;28;45488;-76
2022/05/06 07:59:59;;;;;;;;;17.33;15.67;;;;;;;;4931412;28;46077;-78
2022/05/06 08:05:09;;;;;;;;;9.33;8.00;;;;;;;;4937784;28;45606;-79
2022/05/06 08:07:37;;;;;;;;;12.67;12.67;;;;;;;;4933610;28;45633;-83
2022/05/06 08:10:06;;;;;;;;;9.33;9.33;;;;;;;;4932009;28;45457;-81
2022/05/06 08:12:35;;;;;;;;;11.00;9.33;;;;;;;;4935403;28;46310;-82
2022/05/06 08:15:10;;;;;;;;;8.67;7.33;;;;;;;;4953018;28;45468;-84
2022/05/06 08:17:39;;;;;;;;;9.33;8.00;;;;;;;;4927729;28;45701;-79
2022/05/06 08:20:08;;;;;;;;;12.00;10.00;;;;;;;;4924948;28;45535;-82
2022/05/06 08:22:36;;;;;;;;;9.67;9.67;;;;;;;;4933729;28;45614;-80
2022/05/06 08:25:03;;;;;;;;;11.00;9.00;;;;;;;;4924314;28;46174;-79
2022/05/06 08:27:28;;;;;;;;;10.00;9.00;;;;;;;;4917943;28;45774;-77
2022/05/06 08:29:54;;;;;;;;;8.67;8.67;;;;;;;;4924051;28;45669;-78
2022/05/06 08:32:19;;;;;;;;;9.00;9.00;;;;;;;;4944316;28;45648;-78
2022/05/06 08:34:47;;;;;;;;;10.00;9.00;;;;;;;;4923731;28;46267;-78
2022/05/06 08:37:12;;;;;;;;;10.00;9.33;;;;;;;;4922112;28;45564;-79
2022/05/06 08:39:37;;;;;;;;;9.67;9.67;;;;;;;;4947798;28;45843;-77
2022/05/06 08:42:06;;;;;;;;;8.33;8.33;;;;;;;;4944753;28;45838;-79
2022/05/06 08:52:45;;;;;;;;;10.00;8.00;;;;;;;;4939478;28;45461;-80
2022/05/06 08:55:10;;;;;;;;;9.00;9.00;;;;;;;;4935294;28;45772;-81
2022/05/06 08:57:36;;;;;;;;;5.00;5.00;;;;;;;;4935076;28;45795;-81
2022/05/06 09:00:03;;;;;;;;;9.33;7.00;;;;;;;;4926759;28;45402;-80
2022/05/06 09:02:30;;;;;;;;;7.67;6.00;;;;;;;;4938540;28;45644;-79
2022/05/06 09:04:57;;;;;;;;;4.33;4.33;;;;;;;;4929264;28;48360;-78
2022/05/06 09:07:24;;;;;;;;;3.00;3.00;;;;;;;;4939827;28;45903;-78
2022/05/06 09:10:09;;;;;;;;;3.50;3.50;;;;;;;;4939553;28;45948;-77
2022/05/06 09:12:40;;;;;;;;;4.33;3.33;;;;;;;;4938819;28;45596;-77
2022/05/06 09:17:50;;;;;;;;;3.00;3.00;;;;;;;;4940937;28;45789;-78
2022/05/06 09:20:19;;;;;;;;;3.33;3.33;;;;;;;;4942063;28;45815;-78
2022/05/06 09:22:45;;;;;;;;;2.50;2.50;;;;;;;;4920297;28;45926;-75
2022/05/06 09:25:10;;;;;;;;;4.67;4.67;;;;;;;;4917297;28;47891;-77
2022/05/06 09:27:35;;;;;;;;;2.75;2.75;;;;;;;;4931719;28;45466;-78
2022/05/06 09:30:07;;;;;;;;;3.00;3.00;;;;;;;;4927421;28;45517;-79
2022/05/06 09:32:33;;;;;;;;;2.67;2.67;;;;;;;;4945667;28;45929;-78
2022/05/06 09:35:05;;;;;;;;;3.75;2.75;;;;;;;;4948645;28;47239;-80
2022/05/06 09:37:30;;;;;;;;;6.67;5.00;;;;;;;;4924209;28;45749;-79
2022/05/06 09:40:14;;;;;;;;;3.00;3.00;;;;;;;;4945475;28;45557;-81
2022/05/06 09:42:41;;;;;;;;;4.67;4.67;;;;;;;;4951703;28;45703;-78
2022/05/06 09:45:07;;;;;;;;;5.00;4.67;;;;;;;;4943842;28;46430;-80
2022/05/06 09:47:33;;;;;;;;;6.00;5.00;;;;;;;;4929804;28;45797;-79
2022/05/06 09:49:59;;;;;;;;;3.33;3.33;;;;;;;;4922722;28;45800;-80
2022/05/06 09:52:25;;;;;;;;;3.50;2.50;;;;;;;;4951509;28;45748;-82
2022/05/06 09:54:54;;;;;;;;;2.25;0.75;;;;;;;;4947481;28;45675;-82
2022/05/06 09:57:19;;;;;;;;;5.00;5.00;;;;;;;;4937280;28;45927;-78
2022/05/06 09:59:45;;;;;;;;;5.00;5.00;;;;;;;;4945138;28;45456;-81
2022/05/06 10:02:10;;;;;;;;;6.33;6.33;;;;;;;;4947313;28;46147;-79
2022/05/06 10:04:43;;;;;;;;;6.33;5.00;;;;;;;;4956315;28;45787;-80
2022/05/06 10:07:18;;;;;;;;;7.33;6.00;;;;;;;;4959043;28;45779;-80
2022/05/06 10:09:55;;;;;;;;;5.50;4.75;;;;;;;;4964350;28;45712;-80
2022/05/06 10:12:31;;;;;;;;;11.33;10.33;;;;;;;;4947685;28;46675;-78
2022/05/06 10:15:13;;;;;;;;;5.00;5.00;;;;;;;;4956445;28;45934;-81
2022/05/06 10:17:55;;;;;;;;;4.00;4.00;;;;;;;;4954930;28;45913;-83
2022/05/06 10:20:35;;;;;;;;;5.50;4.25;;;;;;;;4938350;28;46268;-84
2022/05/06 10:23:06;;;;;;;;;3.75;3.75;;;;;;;;4964740;28;45985;-84
2022/05/06 10:25:40;;;;;;;;;5.25;5.25;;;;;;;;4948803;28;47215;-82
2022/05/06 10:34:17;;;;;;;;;7.33;7.33;;;;;;;;4939328;28;46356;-83
2022/05/06 10:36:42;;;;;;;;;5.00;4.75;;;;;;;;4951578;28;47224;-85
2022/05/06 10:39:23;;;;;;;;;7.00;5.50;;;;;;;;4940914;28;45926;-82
2022/05/06 10:42:05;;;;;;;;;6.25;6.25;;;;;;;;4943060;28;45870;-79
2022/05/06 10:44:41;;;;;;;;;5.75;4.00;;;;;;;;4937672;28;46274;-82
2022/05/06 10:47:12;;;;;;;;;4.00;4.00;;;;;;;;4944691;28;45534;-83
2022/05/06 10:49:46;;;;;;;;;3.75;3.75;;;;;;;;4945113;28;45551;-81
2022/05/06 10:52:14;;;;;;;;;4.00;4.00;;;;;;;;4963696;28;45698;-79
2022/05/06 10:54:42;;;;;;;;;7.50;6.50;;;;;;;;4947533;28;45761;-83
2022/05/06 10:57:09;;;;;;;;;4.25;4.25;;;;;;;;4965654;28;45880;-83
2022/05/06 10:59:56;;;;;;;;;5.25;5.25;;;;;;;;4959640;28;45430;-85
2022/05/06 11:08:54;;;;;;;;;;;;;;;;;;;;;
2022/05/06 11:11:20;;;;;;;;;3.00;3.00;;;;;;;;4889731;28;72523;-84
2022/05/06 11:13:49;;;;;;;;;2.25;2.25;;;;;;;;4948620;28;46241;-81
2022/05/06 11:16:15;;;;;;;;;3.00;3.00;;;;;;;;4943637;28;47003;-79
2022/05/06 11:18:51;;;;;;;;;6.00;5.25;;;;;;;;4963521;28;45926;-80
2022/05/06 11:24:21;;;;;;;;;4.75;3.50;;;;;;;;4966173;28;45710;-80
2022/05/06 11:26:46;;;;;;;;;4.25;4.25;;;;;;;;4944349;28;46026;-78
2022/05/06 11:29:12;;;;;;;;;4.00;4.00;;;;;;;;4959491;28;45644;-81
2022/05/06 11:31:37;;;;;;;;;4.75;3.75;;;;;;;;4945853;28;45461;-83
2022/05/06 11:34:09;;;;;;;;;3.00;3.00;;;;;;;;4968392;28;45898;-83
2022/05/06 11:36:34;;;;;;;;;2.50;2.50;;;;;;;;4943060;28;45875;-78
2022/05/06 11:39:09;;;;;;;;;2.50;2.50;;;;;;;;4945472;28;47118;-79
2022/05/06 11:41:34;;;;;;;;;4.00;4.00;;;;;;;;4963881;28;45742;-80
2022/05/06 11:44:05;;;;;;;;;3.50;3.50;;;;;;;;4944885;28;45535;-85
2022/05/06 11:49:25;;;;;;;;;5.25;3.75;;;;;;;;4979302;28;45185;-79
2022/05/06 11:51:51;;;;;;;;;3.75;3.75;;;;;;;;4978791;28;45776;-79
2022/05/06 11:54:17;;;;;;;;;4.25;4.25;;;;;;;;4959320;28;45886;-80
2022/05/06 11:56:42;;;;;;;;;3.75;3.75;;;;;;;;4956896;28;45775;-79
2022/05/06 11:59:09;;;;;;;;;4.00;2.25;;;;;;;;4951452;28;45965;-81
2022/05/06 12:01:35;;;;;;;;;3.00;3.00;;;;;;;;4956174;28;45468;-82
2022/05/06 12:04:01;;;;;;;;;2.00;2.00;;;;;;;;4968557;28;45819;-78
2022/05/06 12:06:27;;;;;;;;;2.50;2.50;;;;;;;;4940154;28;46700;-79
2022/05/06 12:09:06;;;;;;;;;3.00;3.00;;;;;;;;4968808;28;45536;-78
2022/05/06 12:11:31;;;;;;;;;4.75;4.00;;;;;;;;4969664;28;45880;-78
2022/05/06 12:14:04;;;;;;;;;5.50;3.75;;;;;;;;4971074;28;45591;-83
2022/05/06 12:16:29;;;;;;;;;2.50;2.50;;;;;;;;4971604;28;45791;-82
2022/05/06 12:18:54;;;;;;;;;4.75;4.00;;;;;;;;4955257;28;47112;-79
2022/05/06 12:21:24;;;;;;;;;2.00;2.00;;;;;;;;4990718;28;45742;-78
2022/05/06 12:23:54;;;;;;;;;2.00;2.00;;;;;;;;4969839;28;45485;-78
2022/05/06 12:26:36;;;;;;;;;2.00;2.00;;;;;;;;4962004;28;45365;-80
2022/05/06 12:29:02;;;;;;;;;3.00;3.00;;;;;;;;4951002;28;45429;-78
2022/05/06 12:31:33;;;;;;;;;3.25;3.25;;;;;;;;4934052;28;45857;-79
2022/05/06 12:34:01;;;;;;;;;3.00;3.00;;;;;;;;4943114;28;45907;-80
2022/05/06 12:36:26;;;;;;;;;3.67;3.67;;;;;;;;4953059;28;46062;-78
2022/05/06 12:38:52;;;;;;;;;3.67;3.67;;;;;;;;4953878;28;45964;-79
2022/05/06 12:41:25;;;;;;;;;2.25;2.25;;;;;;;;4951126;28;45354;-78
2022/05/06 12:43:51;;;;;;;;;2.00;2.00;;;;;;;;4953122;28;45495;-80
2022/05/06 12:46:24;;;;;;;;;3.00;3.00;;;;;;;;4972256;28;45910;-80
2022/05/06 12:51:33;;;;;;;;;2.75;2.75;;;;;;;;4976854;28;45472;-80
2022/05/06 12:54:00;;;;;;;;;1.25;1.25;;;;;;;;4972120;28;45611;-81
2022/05/06 12:56:26;;;;;;;;;2.00;2.00;;;;;;;;4959946;28;46314;-82
2022/05/06 12:58:52;;;;;;;;;3.00;2.75;;;;;;;;4952359;28;45724;-82
2022/05/06 13:01:17;;;;;;;;;2.75;2.75;;;;;;;;4957176;28;45409;-81
2022/05/06 13:03:43;;;;;;;;;1.25;1.25;;;;;;;;4975020;28;45703;-82
2022/05/06 13:06:08;;;;;;;;;2.75;2.75;;;;;;;;4954784;28;45537;-81
2022/05/06 13:08:34;;;;;;;;;2.00;2.00;;;;;;;;4966058;28;46092;-82
2022/05/06 13:10:59;;;;;;;;;3.00;3.00;;;;;;;;4974452;28;45722;-82
2022/05/06 13:13:24;;;;;;;;;3.25;3.00;;;;;;;;4983101;28;45353;-80
2022/05/06 13:15:50;;;;;;;;;4.33;4.33;;;;;;;;4965323;28;45651;-83
2022/05/06 13:18:15;;;;;;;;;3.00;3.00;;;;;;;;4956936;28;45418;-78
2022/05/06 13:20:40;;;;;;;;;3.00;3.00;;;;;;;;4958295;28;45640;-79
2022/05/06 13:23:06;;;;;;;;;4.00;2.75;;;;;;;;4962719;28;45471;-79
2022/05/06 13:25:31;;;;;;;;;1.00;1.00;;;;;;;;4974803;28;45908;-77
2022/05/06 13:27:56;;;;;;;;;2.25;2.25;;;;;;;;4948382;28;47632;-78
2022/05/06 13:30:23;;;;;;;;;1.75;1.75;;;;;;;;4943265;28;45648;-77
2022/05/06 13:32:48;;;;;;;;;2.33;1.00;;;;;;;;4973831;28;46008;-78
2022/05/06 13:35:14;;;;;;;;;3.50;2.00;;;;;;;;4952384;28;46375;-77
2022/05/06 13:37:39;;;;;;;;;4.00;4.00;;;;;;;;4953671;28;47139;-78
2022/05/06 13:40:05;;;;;;;;;3.25;2.25;;;;;;;;4953269;28;45986;-81
2022/05/06 13:42:31;;;;;;;;;2.50;2.50;;;;;;;;4955053;28;45625;-82
2022/05/06 13:44:56;;;;;;;;;3.75;2.00;;;;;;;;4958154;28;45591;-80
2022/05/06 13:47:21;;;;;;;;;3.75;3.75;;;;;;;;4975580;28;45356;-80
2022/05/06 13:49:48;;;;;;;;;3.00;3.00;;;;;;;;4976338;28;45791;-80
2022/05/06 13:52:14;;;;;;;;;3.00;3.00;;;;;;;;4958675;28;45426;-79
2022/05/06 13:54:39;;;;;;;;;4.00;4.00;;;;;;;;4958460;28;45991;-81
2022/05/06 13:59:49;;;;;;;;;3.00;3.00;;;;;;;;4977289;28;45404;-79
2022/05/06 14:02:14;;;;;;;;;4.00;3.00;;;;;;;;4974125;28;45328;-79
2022/05/06 14:04:40;;;;;;;;;3.00;3.00;;;;;;;;4956818;28;46732;-81
2022/05/06 14:07:06;;;;;;;;;1.00;1.00;;;;;;;;4974452;28;45799;-82
2022/05/06 14:09:33;;;;;;;;;2.00;2.00;;;;;;;;4945083;28;45789;-81
2022/05/06 14:11:59;;;;;;;;;4.00;3.00;;;;;;;;4950020;28;45662;-79
2022/05/06 14:14:24;;;;;;;;;3.25;3.25;;;;;;;;4955141;28;45790;-79
2022/05/06 14:16:49;;;;;;;;;2.75;2.50;;;;;;;;4972989;28;45517;-81
2022/05/06 14:19:17;;;;;;;;;3.67;3.67;;;;;;;;4945181;28;45725;-83
2022/05/06 14:21:43;;;;;;;;;2.67;2.67;;;;;;;;4953884;28;45824;-83
2022/05/06 14:24:09;;;;;;;;;2.67;2.67;;;;;;;;4962231;28;45398;-80
2022/05/06 14:26:34;;;;;;;;;3.25;2.00;;;;;;;;4954873;28;48250;-80
2022/05/06 14:29:00;;;;;;;;;4.00;2.00;;;;;;;;4972958;28;45777;-78
2022/05/06 14:31:25;;;;;;;;;2.00;1.00;;;;;;;;4972955;28;45815;-79
2022/05/06 14:33:50;;;;;;;;;1.25;1.25;;;;;;;;4943566;28;46067;-77
2022/05/06 14:36:19;;;;;;;;;2.00;2.00;;;;;;;;4959393;28;45432;-79
2022/05/06 14:38:44;;;;;;;;;2.00;2.00;;;;;;;;4968389;28;45480;-82
2022/05/06 14:41:10;;;;;;;;;2.00;2.00;;;;;;;;4954692;28;45563;-82
2022/05/06 14:43:35;;;;;;;;;2.00;2.00;;;;;;;;4960768;28;45650;-82
2022/05/06 14:46:01;;;;;;;;;2.00;2.00;;;;;;;;4942873;28;46993;-80
2022/05/06 14:48:27;;;;;;;;;4.67;4.67;;;;;;;;4966474;28;45731;-79
2022/05/06 14:50:52;;;;;;;;;2.33;2.33;;;;;;;;4967278;28;45809;-80
2022/05/06 14:53:18;;;;;;;;;3.00;3.00;;;;;;;;4970908;28;45680;-80
2022/05/06 14:55:43;;;;;;;;;2.00;2.00;;;;;;;;4970119;28;48131;-79
2022/05/06 14:58:08;;;;;;;;;3.67;3.67;;;;;;;;4955158;28;45721;-81
2022/05/06 15:00:34;;;;;;;;;2.67;2.00;;;;;;;;4952672;28;45362;-82
2022/05/06 15:02:59;;;;;;;;;2.67;2.67;;;;;;;;4944785;28;45810;-82
2022/05/06 15:05:26;;;;;;;;;2.00;2.00;;;;;;;;4938789;28;46706;-81
2022/05/06 15:07:51;;;;;;;;;3.00;1.67;;;;;;;;4947629;28;45477;-82
2022/05/06 15:10:16;;;;;;;;;3.00;3.00;;;;;;;;4962675;28;45531;-79
2022/05/06 15:12:42;;;;;;;;;3.00;3.00;;;;;;;;4938598;28;46386;-78
2022/05/06 15:15:07;;;;;;;;;2.67;2.00;;;;;;;;4953570;28;45780;-81
2022/05/06 15:17:33;;;;;;;;;4.00;3.00;;;;;;;;4936681;28;45800;-82
2022/05/06 15:19:59;;;;;;;;;3.00;2.00;;;;;;;;4937877;28;45549;-83
2022/05/06 15:22:26;;;;;;;;;1.33;1.33;;;;;;;;4954853;28;45849;-82
2022/05/06 15:24:51;;;;;;;;;2.00;1.25;;;;;;;;4936394;28;47991;-81
2022/05/06 15:27:21;;;;;;;;;1.00;1.00;;;;;;;;4955283;28;45745;-81
2022/05/06 15:29:46;;;;;;;;;2.50;2.50;;;;;;;;4954572;28;45541;-80
2022/05/06 15:32:12;;;;;;;;;2.00;2.00;;;;;;;;4960182;28;45834;-78
2022/05/06 15:34:37;;;;;;;;;2.00;2.00;;;;;;;;4952430;28;47190;-79
2022/05/06 15:37:03;;;;;;;;;2.00;2.00;;;;;;;;4966817;28;45613;-82
2022/05/06 15:39:31;;;;;;;;;2.00;2.00;;;;;;;;4973993;28;45779;-81
2022/05/06 15:41:56;;;;;;;;;2.50;2.00;;;;;;;;4958180;28;45311;-82
2022/05/06 15:44:22;;;;;;;;;1.50;1.50;;;;;;;;4953708;28;46210;-82
2022/05/06 15:46:47;;;;;;;;;2.75;2.75;;;;;;;;4958756;28;45701;-84
2022/05/06 15:49:13;;;;;;;;;2.00;2.00;;;;;;;;4959643;28;45392;-81
2022/05/06 15:51:39;;;;;;;;;2.00;2.00;;;;;;;;4938886;28;46479;-79
2022/05/06 15:54:05;;;;;;;;;2.00;2.00;;;;;;;;4953470;28;46134;-79
2022/05/06 15:56:31;;;;;;;;;3.25;2.75;;;;;;;;4957656;28;45880;-80